sensor_id;sensor_type;location;lat;lon;timestamp;P1;durP1;ratioP1;P2;durP2;ratioP2
15536;SDS011;7870;52.448;13.270;2022-08-19T00:01:22;14.68;;;13.38;;
15536;SDS011;7870;52.448;13.270;2022-08-19T00:03:56;15.27;;;14.07;;
15536;SDS011;7870;52.448;13.270;2022-08-19T00:06:23;14.20;;;13.02;;
15536;SDS011;7870;52.448;13.270;2022-08-19T00:08:49;17.00;;;15.60;;
15536;SDS011;7870;52.448;13.270;2022-08-19T00:11:17;15.70;;;14.45;;
15536;SDS011;7870;52.448;13.270;2022-08-19T00:13:51;17.63;;;16.23;;
15536;SDS011;7870;52.448;13.270;2022-08-19T00:16:17;15.27;;;14.18;;
15536;SDS011;7870;52.448;13.270;2022-08-19T00:18:52;17.23;;;15.73;;
15536;SDS011;7870;52.448;13.270;2022-08-19T00:21:19;16.40;;;15.07;;
15536;SDS011;7870;52.448;13.270;2022-08-19T00:23:45;15.05;;;13.77;;
15536;SDS011;7870;52.448;13.270;2022-08-19T00:26:12;14.82;;;13.63;;
15536;SDS011;7870;52.448;13.270;2022-08-19T00:28:38;17.83;;;16.42;;
15536;SDS011;7870;52.448;13.270;2022-08-19T00:31:06;15.95;;;14.50;;
15536;SDS011;7870;52.448;13.270;2022-08-19T00:33:33;17.98;;;16.38;;
15536;SDS011;7870;52.448;13.270;2022-08-19T00:36:00;16.13;;;14.73;;
15536;SDS011;7870;52.448;13.270;2022-08-19T00:38:26;18.48;;;16.92;;
15536;SDS011;7870;52.448;13.270;2022-08-19T00:41:04;19.05;;;17.45;;
15536;SDS011;7870;52.448;13.270;2022-08-19T00:43:31;18.35;;;16.90;;
15536;SDS011;7870;52.448;13.270;2022-08-19T00:45:57;17.23;;;15.68;;
15536;SDS011;7870;52.448;13.270;2022-08-19T00:48:24;14.73;;;13.55;;
15536;SDS011;7870;52.448;13.270;2022-08-19T00:50:51;16.30;;;15.00;;
15536;SDS011;7870;52.448;13.270;2022-08-19T00:53:20;14.02;;;12.82;;
15536;SDS011;7870;52.448;13.270;2022-08-19T00:55:48;13.23;;;12.18;;
15536;SDS011;7870;52.448;13.270;2022-08-19T00:58:17;18.27;;;16.73;;
15536;SDS011;7870;52.448;13.270;2022-08-19T01:00:45;16.73;;;15.23;;
15536;SDS011;7870;52.448;13.270;2022-08-19T01:03:13;15.75;;;14.45;;
15536;SDS011;7870;52.448;13.270;2022-08-19T01:05:40;17.15;;;15.70;;
15536;SDS011;7870;52.448;13.270;2022-08-19T01:08:07;16.70;;;15.20;;
15536;SDS011;7870;52.448;13.270;2022-08-19T01:10:36;16.73;;;15.52;;
15536;SDS011;7870;52.448;13.270;2022-08-19T01:13:03;19.27;;;17.45;;
15536;SDS011;7870;52.448;13.270;2022-08-19T01:15:31;18.73;;;17.15;;
15536;SDS011;7870;52.448;13.270;2022-08-19T01:17:59;19.90;;;18.15;;
15536;SDS011;7870;52.448;13.270;2022-08-19T01:20:27;18.75;;;17.20;;
15536;SDS011;7870;52.448;13.270;2022-08-19T01:22:57;19.05;;;17.55;;
15536;SDS011;7870;52.448;13.270;2022-08-19T01:25:27;18.05;;;16.55;;
15536;SDS011;7870;52.448;13.270;2022-08-19T01:27:54;20.00;;;18.40;;
15536;SDS011;7870;52.448;13.270;2022-08-19T01:30:29;17.20;;;15.80;;
15536;SDS011;7870;52.448;13.270;2022-08-19T01:32:56;18.50;;;16.88;;
15536;SDS011;7870;52.448;13.270;2022-08-19T01:35:24;16.73;;;15.43;;
15536;SDS011;7870;52.448;13.270;2022-08-19T01:37:52;19.42;;;17.92;;
15536;SDS011;7870;52.448;13.270;2022-08-19T01:40:20;22.55;;;20.67;;
15536;SDS011;7870;52.448;13.270;2022-08-19T01:42:47;19.13;;;17.55;;
15536;SDS011;7870;52.448;13.270;2022-08-19T01:45:14;20.83;;;19.02;;
15536;SDS011;7870;52.448;13.270;2022-08-19T01:47:40;20.10;;;18.50;;
15536;SDS011;7870;52.448;13.270;2022-08-19T01:50:07;22.27;;;20.10;;
15536;SDS011;7870;52.448;13.270;2022-08-19T01:52:37;22.83;;;20.60;;
15536;SDS011;7870;52.448;13.270;2022-08-19T01:55:04;29.30;;;26.30;;
15536;SDS011;7870;52.448;13.270;2022-08-19T01:57:31;25.70;;;23.35;;
15536;SDS011;7870;52.448;13.270;2022-08-19T01:59:58;29.77;;;26.83;;
15536;SDS011;7870;52.448;13.270;2022-08-19T02:02:24;28.83;;;25.92;;
15536;SDS011;7870;52.448;13.270;2022-08-19T02:04:51;33.47;;;30.08;;
15536;SDS011;7870;52.448;13.270;2022-08-19T02:07:21;23.08;;;21.08;;
15536;SDS011;7870;52.448;13.270;2022-08-19T02:09:48;21.95;;;19.88;;
15536;SDS011;7870;52.448;13.270;2022-08-19T02:12:14;18.35;;;16.75;;
15536;SDS011;7870;52.448;13.270;2022-08-19T02:14:40;18.20;;;16.45;;
15536;SDS011;7870;52.448;13.270;2022-08-19T02:17:07;21.83;;;19.75;;
15536;SDS011;7870;52.448;13.270;2022-08-19T02:19:34;23.52;;;21.42;;
15536;SDS011;7870;52.448;13.270;2022-08-19T02:22:04;19.53;;;17.77;;
15536;SDS011;7870;52.448;13.270;2022-08-19T02:24:31;18.38;;;16.73;;
15536;SDS011;7870;52.448;13.270;2022-08-19T02:26:57;21.75;;;19.65;;
15536;SDS011;7870;52.448;13.270;2022-08-19T02:29:24;21.80;;;19.88;;
15536;SDS011;7870;52.448;13.270;2022-08-19T02:31:51;22.73;;;20.65;;
15536;SDS011;7870;52.448;13.270;2022-08-19T02:34:17;15.63;;;14.20;;
15536;SDS011;7870;52.448;13.270;2022-08-19T02:36:44;15.98;;;14.68;;
15536;SDS011;7870;52.448;13.270;2022-08-19T02:39:17;17.92;;;16.25;;
15536;SDS011;7870;52.448;13.270;2022-08-19T02:41:44;14.82;;;13.52;;
15536;SDS011;7870;52.448;13.270;2022-08-19T02:44:10;15.68;;;13.85;;
15536;SDS011;7870;52.448;13.270;2022-08-19T02:46:55;21.63;;;19.63;;
15536;SDS011;7870;52.448;13.270;2022-08-19T02:49:22;21.55;;;19.60;;
15536;SDS011;7870;52.448;13.270;2022-08-19T02:51:48;21.85;;;19.80;;
15536;SDS011;7870;52.448;13.270;2022-08-19T02:54:15;16.58;;;15.18;;
15536;SDS011;7870;52.448;13.270;2022-08-19T02:56:42;16.95;;;15.45;;
15536;SDS011;7870;52.448;13.270;2022-08-19T02:59:09;19.08;;;17.15;;
15536;SDS011;7870;52.448;13.270;2022-08-19T03:01:37;18.77;;;17.10;;
15536;SDS011;7870;52.448;13.270;2022-08-19T03:04:06;23.05;;;20.90;;
15536;SDS011;7870;52.448;13.270;2022-08-19T03:06:35;17.02;;;15.60;;
15536;SDS011;7870;52.448;13.270;2022-08-19T03:09:02;23.63;;;21.48;;
15536;SDS011;7870;52.448;13.270;2022-08-19T03:11:29;23.25;;;21.15;;
15536;SDS011;7870;52.448;13.270;2022-08-19T03:13:56;20.25;;;18.63;;
15536;SDS011;7870;52.448;13.270;2022-08-19T03:16:24;17.92;;;16.42;;
15536;SDS011;7870;52.448;13.270;2022-08-19T03:18:51;24.60;;;22.48;;
15536;SDS011;7870;52.448;13.270;2022-08-19T03:21:22;27.20;;;24.77;;
15536;SDS011;7870;52.448;13.270;2022-08-19T03:26:16;24.90;;;22.90;;
15536;SDS011;7870;52.448;13.270;2022-08-19T03:28:43;23.48;;;21.45;;
15536;SDS011;7870;52.448;13.270;2022-08-19T03:31:23;26.40;;;23.88;;
15536;SDS011;7870;52.448;13.270;2022-08-19T03:34:11;21.90;;;20.08;;
15536;SDS011;7870;52.448;13.270;2022-08-19T03:36:38;26.95;;;24.77;;
15536;SDS011;7870;52.448;13.270;2022-08-19T03:39:05;27.20;;;25.02;;
15536;SDS011;7870;52.448;13.270;2022-08-19T03:41:32;28.92;;;26.40;;
15536;SDS011;7870;52.448;13.270;2022-08-19T03:44:11;29.90;;;27.15;;
15536;SDS011;7870;52.448;13.270;2022-08-19T03:46:43;29.30;;;26.70;;
15536;SDS011;7870;52.448;13.270;2022-08-19T03:49:10;25.45;;;22.80;;
15536;SDS011;7870;52.448;13.270;2022-08-19T03:51:40;25.50;;;23.17;;
15536;SDS011;7870;52.448;13.270;2022-08-19T03:54:08;31.65;;;28.75;;
15536;SDS011;7870;52.448;13.270;2022-08-19T03:56:36;30.30;;;27.45;;
15536;SDS011;7870;52.448;13.270;2022-08-19T03:59:03;22.90;;;20.92;;
15536;SDS011;7870;52.448;13.270;2022-08-19T04:01:29;27.15;;;24.85;;
15536;SDS011;7870;52.448;13.270;2022-08-19T04:04:01;32.97;;;30.05;;
15536;SDS011;7870;52.448;13.270;2022-08-19T04:06:31;28.90;;;26.42;;
15536;SDS011;7870;52.448;13.270;2022-08-19T04:08:59;23.48;;;21.10;;
15536;SDS011;7870;52.448;13.270;2022-08-19T04:11:26;29.27;;;26.73;;
15536;SDS011;7870;52.448;13.270;2022-08-19T04:14:10;24.05;;;21.85;;
15536;SDS011;7870;52.448;13.270;2022-08-19T04:16:37;24.08;;;22.00;;
15536;SDS011;7870;52.448;13.270;2022-08-19T04:19:04;22.63;;;20.65;;
15536;SDS011;7870;52.448;13.270;2022-08-19T04:21:31;25.02;;;22.85;;
15536;SDS011;7870;52.448;13.270;2022-08-19T04:23:57;27.17;;;24.90;;
15536;SDS011;7870;52.448;13.270;2022-08-19T04:26:26;26.52;;;23.98;;
15536;SDS011;7870;52.448;13.270;2022-08-19T04:28:52;22.70;;;20.80;;
15536;SDS011;7870;52.448;13.270;2022-08-19T04:31:20;23.23;;;21.23;;
15536;SDS011;7870;52.448;13.270;2022-08-19T04:33:47;19.70;;;18.10;;
15536;SDS011;7870;52.448;13.270;2022-08-19T04:36:18;17.63;;;16.17;;
15536;SDS011;7870;52.448;13.270;2022-08-19T04:38:47;22.83;;;20.90;;
15536;SDS011;7870;52.448;13.270;2022-08-19T04:41:13;20.15;;;18.25;;
15536;SDS011;7870;52.448;13.270;2022-08-19T04:43:59;19.40;;;17.85;;
15536;SDS011;7870;52.448;13.270;2022-08-19T04:46:29;18.75;;;17.25;;
15536;SDS011;7870;52.448;13.270;2022-08-19T04:49:17;23.17;;;21.27;;
15536;SDS011;7870;52.448;13.270;2022-08-19T04:51:44;18.67;;;16.95;;
15536;SDS011;7870;52.448;13.270;2022-08-19T04:54:11;19.17;;;17.60;;
15536;SDS011;7870;52.448;13.270;2022-08-19T04:56:39;18.45;;;16.83;;
15536;SDS011;7870;52.448;13.270;2022-08-19T04:59:06;18.98;;;17.40;;
15536;SDS011;7870;52.448;13.270;2022-08-19T05:01:33;19.52;;;17.92;;
15536;SDS011;7870;52.448;13.270;2022-08-19T05:04:00;19.30;;;17.48;;
15536;SDS011;7870;52.448;13.270;2022-08-19T05:06:27;15.20;;;13.80;;
15536;SDS011;7870;52.448;13.270;2022-08-19T05:08:54;16.83;;;15.27;;
15536;SDS011;7870;52.448;13.270;2022-08-19T05:11:25;15.07;;;13.88;;
15536;SDS011;7870;52.448;13.270;2022-08-19T05:13:52;15.65;;;14.15;;
15536;SDS011;7870;52.448;13.270;2022-08-19T05:16:19;16.27;;;14.88;;
15536;SDS011;7870;52.448;13.270;2022-08-19T05:18:46;16.17;;;14.82;;
15536;SDS011;7870;52.448;13.270;2022-08-19T05:21:32;14.98;;;13.68;;
15536;SDS011;7870;52.448;13.270;2022-08-19T05:24:18;14.55;;;13.25;;
15536;SDS011;7870;52.448;13.270;2022-08-19T05:26:46;17.00;;;15.52;;
15536;SDS011;7870;52.448;13.270;2022-08-19T05:29:14;16.92;;;15.43;;
15536;SDS011;7870;52.448;13.270;2022-08-19T05:31:41;13.63;;;12.52;;
15536;SDS011;7870;52.448;13.270;2022-08-19T05:34:08;16.73;;;15.25;;
15536;SDS011;7870;52.448;13.270;2022-08-19T05:36:45;14.90;;;13.48;;
15536;SDS011;7870;52.448;13.270;2022-08-19T05:39:13;14.95;;;13.75;;
15536;SDS011;7870;52.448;13.270;2022-08-19T05:44:38;16.83;;;15.35;;
15536;SDS011;7870;52.448;13.270;2022-08-19T05:47:06;16.02;;;14.73;;
15536;SDS011;7870;52.448;13.270;2022-08-19T05:49:32;15.32;;;14.02;;
15536;SDS011;7870;52.448;13.270;2022-08-19T05:52:01;14.38;;;13.07;;
15536;SDS011;7870;52.448;13.270;2022-08-19T05:54:27;14.43;;;12.98;;
15536;SDS011;7870;52.448;13.270;2022-08-19T05:56:53;14.18;;;12.93;;
15536;SDS011;7870;52.448;13.270;2022-08-19T05:59:21;14.63;;;13.32;;
15536;SDS011;7870;52.448;13.270;2022-08-19T06:01:52;15.48;;;14.18;;
15536;SDS011;7870;52.448;13.270;2022-08-19T06:04:21;15.15;;;13.82;;
15536;SDS011;7870;52.448;13.270;2022-08-19T06:06:49;14.23;;;12.75;;
15536;SDS011;7870;52.448;13.270;2022-08-19T06:09:18;16.30;;;15.10;;
15536;SDS011;7870;52.448;13.270;2022-08-19T06:11:46;16.25;;;14.75;;
15536;SDS011;7870;52.448;13.270;2022-08-19T06:14:16;15.57;;;14.18;;
15536;SDS011;7870;52.448;13.270;2022-08-19T06:16:44;16.63;;;15.02;;
15536;SDS011;7870;52.448;13.270;2022-08-19T06:19:12;15.00;;;13.50;;
15536;SDS011;7870;52.448;13.270;2022-08-19T06:21:39;14.00;;;12.70;;
15536;SDS011;7870;52.448;13.270;2022-08-19T06:24:08;15.13;;;13.82;;
15536;SDS011;7870;52.448;13.270;2022-08-19T06:26:36;14.93;;;13.52;;
15536;SDS011;7870;52.448;13.270;2022-08-19T06:29:03;16.25;;;14.85;;
15536;SDS011;7870;52.448;13.270;2022-08-19T06:31:32;16.98;;;15.48;;
15536;SDS011;7870;52.448;13.270;2022-08-19T06:34:04;14.18;;;12.90;;
15536;SDS011;7870;52.448;13.270;2022-08-19T06:36:35;14.90;;;13.65;;
15536;SDS011;7870;52.448;13.270;2022-08-19T06:39:05;15.38;;;14.07;;
15536;SDS011;7870;52.448;13.270;2022-08-19T06:41:39;18.13;;;16.40;;
15536;SDS011;7870;52.448;13.270;2022-08-19T06:44:16;17.23;;;15.70;;
15536;SDS011;7870;52.448;13.270;2022-08-19T06:46:45;16.08;;;14.80;;
15536;SDS011;7870;52.448;13.270;2022-08-19T06:49:19;17.33;;;16.00;;
15536;SDS011;7870;52.448;13.270;2022-08-19T06:51:46;15.73;;;14.43;;
15536;SDS011;7870;52.448;13.270;2022-08-19T06:54:17;18.05;;;16.55;;
15536;SDS011;7870;52.448;13.270;2022-08-19T06:56:45;17.42;;;15.65;;
15536;SDS011;7870;52.448;13.270;2022-08-19T06:59:13;16.70;;;15.15;;
15536;SDS011;7870;52.448;13.270;2022-08-19T07:01:41;16.67;;;14.95;;
15536;SDS011;7870;52.448;13.270;2022-08-19T07:04:08;15.73;;;14.07;;
15536;SDS011;7870;52.448;13.270;2022-08-19T07:06:37;16.20;;;14.90;;
15536;SDS011;7870;52.448;13.270;2022-08-19T07:09:10;16.77;;;15.40;;
15536;SDS011;7870;52.448;13.270;2022-08-19T07:11:37;16.50;;;15.07;;
15536;SDS011;7870;52.448;13.270;2022-08-19T07:14:04;14.57;;;13.27;;
15536;SDS011;7870;52.448;13.270;2022-08-19T07:16:45;16.83;;;15.23;;
15536;SDS011;7870;52.448;13.270;2022-08-19T07:19:12;17.75;;;14.40;;
15536;SDS011;7870;52.448;13.270;2022-08-19T07:21:41;15.93;;;14.70;;
15536;SDS011;7870;52.448;13.270;2022-08-19T07:24:08;15.55;;;14.40;;
15536;SDS011;7870;52.448;13.270;2022-08-19T07:26:38;18.30;;;16.48;;
15536;SDS011;7870;52.448;13.270;2022-08-19T07:29:07;16.65;;;15.15;;
15536;SDS011;7870;52.448;13.270;2022-08-19T07:31:33;17.30;;;15.82;;
15536;SDS011;7870;52.448;13.270;2022-08-19T07:34:06;17.98;;;16.38;;
15536;SDS011;7870;52.448;13.270;2022-08-19T07:39:01;17.20;;;15.80;;
15536;SDS011;7870;52.448;13.270;2022-08-19T07:41:29;16.35;;;15.02;;
15536;SDS011;7870;52.448;13.270;2022-08-19T07:43:57;17.60;;;16.10;;
15536;SDS011;7870;52.448;13.270;2022-08-19T07:46:25;17.08;;;15.77;;
15536;SDS011;7870;52.448;13.270;2022-08-19T07:48:52;17.35;;;15.85;;
15536;SDS011;7870;52.448;13.270;2022-08-19T07:51:20;17.08;;;15.48;;
15536;SDS011;7870;52.448;13.270;2022-08-19T07:54:02;18.05;;;16.30;;
15536;SDS011;7870;52.448;13.270;2022-08-19T07:56:29;17.80;;;16.30;;
15536;SDS011;7870;52.448;13.270;2022-08-19T07:58:55;17.73;;;16.15;;
15536;SDS011;7870;52.448;13.270;2022-08-19T08:01:23;17.65;;;16.20;;
15536;SDS011;7870;52.448;13.270;2022-08-19T08:03:51;16.73;;;15.32;;
15536;SDS011;7870;52.448;13.270;2022-08-19T08:06:36;18.65;;;16.92;;
15536;SDS011;7870;52.448;13.270;2022-08-19T08:09:23;17.08;;;15.68;;
15536;SDS011;7870;52.448;13.270;2022-08-19T08:11:52;17.30;;;15.70;;
15536;SDS011;7870;52.448;13.270;2022-08-19T08:14:24;17.27;;;15.65;;
15536;SDS011;7870;52.448;13.270;2022-08-19T08:16:55;16.65;;;15.15;;
15536;SDS011;7870;52.448;13.270;2022-08-19T08:19:25;18.20;;;16.60;;
15536;SDS011;7870;52.448;13.270;2022-08-19T08:21:52;18.25;;;16.63;;
15536;SDS011;7870;52.448;13.270;2022-08-19T08:24:19;18.33;;;16.80;;
15536;SDS011;7870;52.448;13.270;2022-08-19T08:26:46;17.83;;;16.33;;
15536;SDS011;7870;52.448;13.270;2022-08-19T08:31:45;17.08;;;15.45;;
15536;SDS011;7870;52.448;13.270;2022-08-19T08:34:14;19.88;;;18.23;;
15536;SDS011;7870;52.448;13.270;2022-08-19T08:36:42;19.80;;;18.20;;
15536;SDS011;7870;52.448;13.270;2022-08-19T08:39:09;20.27;;;18.58;;
15536;SDS011;7870;52.448;13.270;2022-08-19T08:41:53;19.95;;;18.30;;
15536;SDS011;7870;52.448;13.270;2022-08-19T08:44:38;19.52;;;17.90;;
15536;SDS011;7870;52.448;13.270;2022-08-19T08:47:09;18.98;;;17.45;;
15536;SDS011;7870;52.448;13.270;2022-08-19T08:54:36;20.17;;;18.55;;
15536;SDS011;7870;52.448;13.270;2022-08-19T08:57:09;19.42;;;17.92;;
15536;SDS011;7870;52.448;13.270;2022-08-19T08:59:38;17.75;;;16.17;;
15536;SDS011;7870;52.448;13.270;2022-08-19T09:02:05;19.63;;;17.83;;
15536;SDS011;7870;52.448;13.270;2022-08-19T09:04:33;20.23;;;18.52;;
15536;SDS011;7870;52.448;13.270;2022-08-19T09:10:04;18.80;;;17.40;;
15536;SDS011;7870;52.448;13.270;2022-08-19T09:15:12;18.95;;;17.40;;
15536;SDS011;7870;52.448;13.270;2022-08-19T09:17:40;18.63;;;16.88;;
15536;SDS011;7870;52.448;13.270;2022-08-19T09:20:15;18.58;;;16.98;;
15536;SDS011;7870;52.448;13.270;2022-08-19T09:22:42;15.30;;;14.00;;
15536;SDS011;7870;52.448;13.270;2022-08-19T09:25:13;15.80;;;14.55;;
15536;SDS011;7870;52.448;13.270;2022-08-19T09:27:41;16.73;;;15.23;;
15536;SDS011;7870;52.448;13.270;2022-08-19T09:30:15;16.48;;;15.10;;
15536;SDS011;7870;52.448;13.270;2022-08-19T09:32:42;17.33;;;15.98;;
15536;SDS011;7870;52.448;13.270;2022-08-19T09:35:09;17.45;;;16.05;;
15536;SDS011;7870;52.448;13.270;2022-08-19T09:37:37;18.05;;;16.50;;
15536;SDS011;7870;52.448;13.270;2022-08-19T09:40:05;18.33;;;16.70;;
15536;SDS011;7870;52.448;13.270;2022-08-19T09:42:34;15.15;;;13.88;;
15536;SDS011;7870;52.448;13.270;2022-08-19T09:45:00;17.02;;;15.57;;
15536;SDS011;7870;52.448;13.270;2022-08-19T09:47:30;16.33;;;14.82;;
15536;SDS011;7870;52.448;13.270;2022-08-19T09:49:56;16.90;;;15.27;;
15536;SDS011;7870;52.448;13.270;2022-08-19T09:52:24;14.52;;;13.32;;
15536;SDS011;7870;52.448;13.270;2022-08-19T09:54:58;17.13;;;15.63;;
15536;SDS011;7870;52.448;13.270;2022-08-19T09:57:24;15.38;;;14.10;;
15536;SDS011;7870;52.448;13.270;2022-08-19T09:59:51;14.80;;;13.40;;
15536;SDS011;7870;52.448;13.270;2022-08-19T10:02:17;14.85;;;13.65;;
15536;SDS011;7870;52.448;13.270;2022-08-19T10:04:47;15.65;;;14.30;;
15536;SDS011;7870;52.448;13.270;2022-08-19T10:07:33;15.75;;;14.38;;
15536;SDS011;7870;52.448;13.270;2022-08-19T10:10:05;16.00;;;14.70;;
15536;SDS011;7870;52.448;13.270;2022-08-19T10:12:33;14.15;;;12.88;;
15536;SDS011;7870;52.448;13.270;2022-08-19T10:14:59;14.77;;;13.50;;
15536;SDS011;7870;52.448;13.270;2022-08-19T10:17:26;14.10;;;13.00;;
15536;SDS011;7870;52.448;13.270;2022-08-19T10:19:59;14.85;;;13.65;;
15536;SDS011;7870;52.448;13.270;2022-08-19T10:22:25;15.23;;;13.75;;
15536;SDS011;7870;52.448;13.270;2022-08-19T10:24:52;15.15;;;13.95;;
15536;SDS011;7870;52.448;13.270;2022-08-19T10:27:19;14.05;;;12.77;;
15536;SDS011;7870;52.448;13.270;2022-08-19T10:29:45;14.10;;;13.00;;
15536;SDS011;7870;52.448;13.270;2022-08-19T10:32:13;14.27;;;12.98;;
15536;SDS011;7870;52.448;13.270;2022-08-19T10:34:40;13.90;;;12.80;;
15536;SDS011;7870;52.448;13.270;2022-08-19T10:37:14;14.63;;;13.23;;
15536;SDS011;7870;52.448;13.270;2022-08-19T10:39:49;12.40;;;11.20;;
15536;SDS011;7870;52.448;13.270;2022-08-19T10:42:15;12.82;;;11.68;;
15536;SDS011;7870;52.448;13.270;2022-08-19T10:44:43;12.93;;;11.82;;
15536;SDS011;7870;52.448;13.270;2022-08-19T10:47:10;14.40;;;13.00;;
15536;SDS011;7870;52.448;13.270;2022-08-19T10:49:48;12.48;;;11.48;;
15536;SDS011;7870;52.448;13.270;2022-08-19T10:52:37;14.20;;;13.00;;
15536;SDS011;7870;52.448;13.270;2022-08-19T10:55:04;14.02;;;12.93;;
15536;SDS011;7870;52.448;13.270;2022-08-19T10:57:54;14.25;;;13.02;;
15536;SDS011;7870;52.448;13.270;2022-08-19T11:00:28;14.68;;;13.43;;
15536;SDS011;7870;52.448;13.270;2022-08-19T11:02:55;13.02;;;11.82;;
15536;SDS011;7870;52.448;13.270;2022-08-19T11:05:21;13.40;;;11.95;;
15536;SDS011;7870;52.448;13.270;2022-08-19T11:07:49;13.50;;;12.40;;
15536;SDS011;7870;52.448;13.270;2022-08-19T11:10:17;14.35;;;13.23;;
15536;SDS011;7870;52.448;13.270;2022-08-19T11:12:47;14.38;;;13.18;;
15536;SDS011;7870;52.448;13.270;2022-08-19T11:15:14;13.68;;;12.57;;
15536;SDS011;7870;52.448;13.270;2022-08-19T11:17:41;13.50;;;12.30;;
15536;SDS011;7870;52.448;13.270;2022-08-19T11:20:11;13.98;;;12.88;;
15536;SDS011;7870;52.448;13.270;2022-08-19T11:22:38;13.43;;;12.27;;
15536;SDS011;7870;52.448;13.270;2022-08-19T11:25:07;13.02;;;11.82;;
15536;SDS011;7870;52.448;13.270;2022-08-19T11:27:37;13.85;;;12.60;;
15536;SDS011;7870;52.448;13.270;2022-08-19T11:30:04;13.68;;;12.52;;
15536;SDS011;7870;52.448;13.270;2022-08-19T11:32:33;12.65;;;11.57;;
15536;SDS011;7870;52.448;13.270;2022-08-19T11:35:00;13.32;;;12.23;;
15536;SDS011;7870;52.448;13.270;2022-08-19T11:37:27;12.93;;;11.82;;
15536;SDS011;7870;52.448;13.270;2022-08-19T11:39:53;13.02;;;12.02;;
15536;SDS011;7870;52.448;13.270;2022-08-19T11:42:20;13.57;;;12.40;;
15536;SDS011;7870;52.448;13.270;2022-08-19T11:45:05;11.77;;;10.73;;
15536;SDS011;7870;52.448;13.270;2022-08-19T11:47:31;12.02;;;11.02;;
15536;SDS011;7870;52.448;13.270;2022-08-19T11:49:59;11.80;;;10.60;;
15536;SDS011;7870;52.448;13.270;2022-08-19T11:52:25;11.85;;;10.73;;
15536;SDS011;7870;52.448;13.270;2022-08-19T11:54:52;11.20;;;10.23;;
15536;SDS011;7870;52.448;13.270;2022-08-19T11:57:19;12.32;;;11.10;;
15536;SDS011;7870;52.448;13.270;2022-08-19T11:59:50;10.45;;;9.55;;
15536;SDS011;7870;52.448;13.270;2022-08-19T12:04:43;9.88;;;8.93;;
15536;SDS011;7870;52.448;13.270;2022-08-19T12:07:09;9.70;;;8.75;;
15536;SDS011;7870;52.448;13.270;2022-08-19T12:09:36;10.73;;;9.75;;
15536;SDS011;7870;52.448;13.270;2022-08-19T12:12:08;9.85;;;8.98;;
15536;SDS011;7870;52.448;13.270;2022-08-19T12:14:35;9.02;;;8.20;;
15536;SDS011;7870;52.448;13.270;2022-08-19T12:17:01;9.02;;;8.32;;
15536;SDS011;7870;52.448;13.270;2022-08-19T12:19:30;10.13;;;9.23;;
15536;SDS011;7870;52.448;13.270;2022-08-19T12:21:59;9.75;;;8.75;;
15536;SDS011;7870;52.448;13.270;2022-08-19T12:26:54;8.85;;;8.02;;
15536;SDS011;7870;52.448;13.270;2022-08-19T12:29:28;8.95;;;7.78;;
15536;SDS011;7870;52.448;13.270;2022-08-19T12:31:56;9.90;;;9.00;;
15536;SDS011;7870;52.448;13.270;2022-08-19T12:34:30;10.40;;;9.48;;
15536;SDS011;7870;52.448;13.270;2022-08-19T12:36:58;9.85;;;8.95;;
15536;SDS011;7870;52.448;13.270;2022-08-19T12:39:24;9.80;;;8.98;;
15536;SDS011;7870;52.448;13.270;2022-08-19T12:41:51;9.85;;;8.95;;
15536;SDS011;7870;52.448;13.270;2022-08-19T12:44:20;9.73;;;8.73;;
15536;SDS011;7870;52.448;13.270;2022-08-19T12:46:57;8.90;;;8.20;;
15536;SDS011;7870;52.448;13.270;2022-08-19T12:49:24;9.20;;;8.32;;
15536;SDS011;7870;52.448;13.270;2022-08-19T12:52:11;9.10;;;8.25;;
15536;SDS011;7870;52.448;13.270;2022-08-19T12:54:42;8.85;;;8.10;;
15536;SDS011;7870;52.448;13.270;2022-08-19T12:57:09;9.70;;;7.95;;
15536;SDS011;7870;52.448;13.270;2022-08-19T12:59:36;9.15;;;8.25;;
15536;SDS011;7870;52.448;13.270;2022-08-19T13:02:03;8.30;;;7.60;;
15536;SDS011;7870;52.448;13.270;2022-08-19T13:04:32;8.23;;;7.43;;
15536;SDS011;7870;52.448;13.270;2022-08-19T13:07:01;8.82;;;8.00;;
15536;SDS011;7870;52.448;13.270;2022-08-19T13:09:28;8.50;;;7.78;;
15536;SDS011;7870;52.448;13.270;2022-08-19T13:11:54;8.30;;;7.60;;
15536;SDS011;7870;52.448;13.270;2022-08-19T13:14:22;9.27;;;8.43;;
15536;SDS011;7870;52.448;13.270;2022-08-19T13:16:52;9.27;;;7.85;;
15536;SDS011;7870;52.448;13.270;2022-08-19T13:19:18;8.38;;;7.57;;
15536;SDS011;7870;52.448;13.270;2022-08-19T13:21:49;8.70;;;7.90;;
15536;SDS011;7870;52.448;13.270;2022-08-19T13:24:16;8.82;;;8.02;;
15536;SDS011;7870;52.448;13.270;2022-08-19T13:26:42;8.82;;;8.02;;
15536;SDS011;7870;52.448;13.270;2022-08-19T13:29:09;8.82;;;8.05;;
15536;SDS011;7870;52.448;13.270;2022-08-19T13:31:54;10.35;;;9.35;;
15536;SDS011;7870;52.448;13.270;2022-08-19T13:34:43;9.40;;;8.60;;
15536;SDS011;7870;52.448;13.270;2022-08-19T13:37:13;9.93;;;8.60;;
15536;SDS011;7870;52.448;13.270;2022-08-19T13:39:39;9.15;;;8.25;;
15536;SDS011;7870;52.448;13.270;2022-08-19T13:42:06;8.95;;;8.15;;
15536;SDS011;7870;52.448;13.270;2022-08-19T13:44:33;9.10;;;8.20;;
15536;SDS011;7870;52.448;13.270;2022-08-19T13:47:00;10.88;;;9.77;;
15536;SDS011;7870;52.448;13.270;2022-08-19T13:49:32;9.30;;;8.50;;
15536;SDS011;7870;52.448;13.270;2022-08-19T13:51:58;9.07;;;8.25;;
15536;SDS011;7870;52.448;13.270;2022-08-19T13:54:25;8.38;;;7.68;;
15536;SDS011;7870;52.448;13.270;2022-08-19T13:56:53;8.95;;;8.05;;
15536;SDS011;7870;52.448;13.270;2022-08-19T13:59:19;9.50;;;8.65;;
15536;SDS011;7870;52.448;13.270;2022-08-19T14:01:46;10.05;;;9.15;;
15536;SDS011;7870;52.448;13.270;2022-08-19T14:04:12;9.35;;;8.52;;
15536;SDS011;7870;52.448;13.270;2022-08-19T14:06:39;9.43;;;8.48;;
15536;SDS011;7870;52.448;13.270;2022-08-19T14:09:05;10.18;;;9.27;;
15536;SDS011;7870;52.448;13.270;2022-08-19T14:11:31;10.02;;;9.23;;
15536;SDS011;7870;52.448;13.270;2022-08-19T14:13:58;8.88;;;8.15;;
15536;SDS011;7870;52.448;13.270;2022-08-19T14:16:25;11.20;;;9.63;;
15536;SDS011;7870;52.448;13.270;2022-08-19T14:18:53;8.98;;;8.27;;
15536;SDS011;7870;52.448;13.270;2022-08-19T14:21:21;9.43;;;8.52;;
15536;SDS011;7870;52.448;13.270;2022-08-19T14:23:48;9.30;;;8.18;;
15536;SDS011;7870;52.448;13.270;2022-08-19T14:26:16;9.25;;;8.38;;
15536;SDS011;7870;52.448;13.270;2022-08-19T14:28:43;9.00;;;8.13;;
15536;SDS011;7870;52.448;13.270;2022-08-19T14:31:10;8.02;;;7.32;;
15536;SDS011;7870;52.448;13.270;2022-08-19T14:33:37;7.43;;;6.72;;
15536;SDS011;7870;52.448;13.270;2022-08-19T14:36:04;8.23;;;7.53;;
15536;SDS011;7870;52.448;13.270;2022-08-19T14:38:31;8.82;;;8.02;;
15536;SDS011;7870;52.448;13.270;2022-08-19T14:43:34;10.05;;;9.20;;
15536;SDS011;7870;52.448;13.270;2022-08-19T14:46:00;8.15;;;7.35;;
15536;SDS011;7870;52.448;13.270;2022-08-19T14:48:27;8.88;;;8.00;;
15536;SDS011;7870;52.448;13.270;2022-08-19T14:50:54;8.93;;;7.95;;
15536;SDS011;7870;52.448;13.270;2022-08-19T14:53:21;9.20;;;8.10;;
15536;SDS011;7870;52.448;13.270;2022-08-19T14:55:48;10.23;;;9.43;;
15536;SDS011;7870;52.448;13.270;2022-08-19T14:58:15;11.43;;;10.43;;
15536;SDS011;7870;52.448;13.270;2022-08-19T15:00:55;13.23;;;12.18;;
15536;SDS011;7870;52.448;13.270;2022-08-19T15:03:21;12.55;;;11.55;;
15536;SDS011;7870;52.448;13.270;2022-08-19T15:05:48;13.48;;;12.38;;